Impacts METAR Board INFO
IDs:

KBWI - Baltimore-Washington, MD, US

Updated at: 0530 UTC 18 Jan 2018
Potential Impact None Slight Moderate High
Time17/17Z 17/18Z 17/19Z 17/20Z 17/21Z 17/22Z 17/23Z 18/00Z 18/01Z 18/02Z 18/03Z 18/04Z 18/05Z
VIS10 10 10 10 10 10 10 10 10 10 10 10 10
CIG60 65 100 100 160 250 -- -- -- -- 200 -- 150
CoverOVCOVCBKNBKNBKNBKNSCTSCTSCTSCTBKNSCTBKN
FltCatVFRVFRVFRVFRVFRVFRVFRVFRVFRVFRVFRVFRVFR
WX--------------------------
WDir320330310310310310310320300300300290300
WSpd13 9 13 10 12 10 8 8 6 7 8 7 8
WGst18 18 -- -- -- -- -- -- -- -- -- -- --
Raw hourly METARs
KBWI 171654Z 32013G18KT 10SM FEW023 BKN060 OVC100 M04/M12 A3035 RMK AO2 SLP280 T10441122
KBWI 171754Z 33009G18KT 10SM BKN065 OVC100 M04/M13 A3033 RMK AO2 SLP273 4/001 60001 T10391128 11028 21044 58021
KBWI 171854Z 31013KT 10SM SCT065 BKN100 BKN160 BKN250 M04/M13 A3032 RMK AO2 SLP269 T10441133
KBWI 171954Z 31010KT 10SM FEW065 BKN100 BKN160 BKN250 M04/M13 A3030 RMK AO2 SLP263 T10391128
KBWI 172054Z 31012KT 10SM SCT100 BKN160 BKN250 M04/M14 A3030 RMK AO2 SLP263 T10441139 56010
KBWI 172154Z 31010KT 10SM FEW110 SCT160 BKN250 M04/M14 A3030 RMK AO2 SLP261 T10441139
KBWI 172254Z 31008KT 10SM FEW110 SCT160 SCT250 M05/M14 A3030 RMK AO2 SLP261 T10501139
KBWI 172354Z 32008KT 10SM SCT160 SCT250 M06/M13 A3029 RMK AO2 SLP258 4/001 T10561133 11039 21056 57004
KBWI 180054Z 30006KT 10SM FEW100 SCT160 SCT250 M06/M13 A3029 RMK AO2 SLP259 T10611133
KBWI 180154Z 30007KT 10SM SCT070 SCT210 M07/M14 A3028 RMK AO2 SLP257 T10671139
KBWI 180254Z 30008KT 10SM SCT070 BKN200 M07/M14 A3029 RMK AO2 SLP259 T10671139 55000
KBWI 180354Z 29007KT 10SM FEW075 SCT200 M07/M14 A3028 RMK AO2 SLP257 T10721139
KBWI 180454Z 30008KT 10SM FEW075 BKN150 M08/M14 A3027 RMK AO2 SLP252 T10781139 400111078